This is the latest recevied weather packets stored in our database for station/object KF4PPJ. If no packets are shown the sender has not sent any weather packets the latest 1 day(s).
| Time | Temp. | Humidity | Pressure | Rain* | Wind** | Luminosity | Snow |
|---|---|---|---|---|---|---|---|
| 1778052527 | 12.22° C | 88% | 1019.9 hPa | 0 mm | 0.45 m/s, 191° | 0 W/m² | - |
| 1778052225 | 12.22° C | 88% | 1019.9 hPa | 0 mm | 0.45 m/s, 186° | 0 W/m² | - |
| 1778051923 | 12.22° C | 88% | 1019.7 hPa | 0 mm | 0.89 m/s, 161° | 0 W/m² | - |
| 1778051621 | 12.22° C | 88% | 1019.8 hPa | 0 mm | 0.45 m/s, 194° | 0 W/m² | - |
| 1778051317 | 12.22° C | 88% | 1019.7 hPa | 0 mm | 0.45 m/s, 169° | 0 W/m² | - |
| 1778051014 | 12.22° C | 88% | 1019.7 hPa | 0 mm | 0.89 m/s, 158° | 0 W/m² | - |
| 1778050711 | 12.22° C | 88% | 1019.7 hPa | 0 mm | 0.89 m/s, 194° | 0 W/m² | - |
| 1778050409 | 12.78° C | 88% | 1019.8 hPa | 0 mm | 0.45 m/s, 181° | 0 W/m² | - |
| 1778050105 | 12.78° C | 88% | 1019.6 hPa | 0 mm | 0.89 m/s, 190° | 0 W/m² | - |
| 1778049801 | 12.78° C | 87% | 1019.7 hPa | 0 mm | 1.34 m/s, 178° | 0 W/m² | - |
| 1778049498 | 12.78° C | 87% | 1019.7 hPa | 0 mm | 0.89 m/s, 194° | 0 W/m² | - |
| 1778049196 | 12.78° C | 87% | 1019.5 hPa | 0 mm | 0.45 m/s, 183° | 0 W/m² | - |
| 1778048894 | 12.78° C | 87% | 1019.6 hPa | 0 mm | 0.89 m/s, 196° | 0 W/m² | - |
| 1778048592 | 12.78° C | 87% | 1019.2 hPa | 0 mm | 0.45 m/s, 186° | 0 W/m² | - |
| 1778048287 | 12.78° C | 87% | 1019.3 hPa | 0 mm | 1.34 m/s, 200° | 0 W/m² | - |
| 1778047984 | 12.78° C | 88% | 1019.4 hPa | 0 mm | 1.34 m/s, 214° | 0 W/m² | - |
| 1778047683 | 12.78° C | 88% | 1019.2 hPa | 0 mm | 0.45 m/s, 202° | 0 W/m² | - |
| 1778047380 | 12.78° C | 89% | 1019.2 hPa | 0 mm | 0.45 m/s, 186° | 0 W/m² | - |
| 1778047076 | 12.78° C | 89% | 1019 hPa | 0 mm | 0 m/s | 0 W/m² | - |
| 1778046774 | 12.78° C | 89% | 1019 hPa | 0 mm | 0 m/s | 0 W/m² | - |
| 1778046470 | 12.78° C | 91% | 1019 hPa | 0 mm | 0.45 m/s, 151° | 0 W/m² | - |
| 1778046167 | 12.22° C | 91% | 1019.1 hPa | 0 mm | 0.45 m/s, 195° | 0 W/m² | - |
| 1778045864 | 12.22° C | 92% | 1019 hPa | 0 mm | 0 m/s | 0 W/m² | - |
| 1778045563 | 12.22° C | 93% | 1019 hPa | 0 mm | 0.45 m/s, 178° | 0 W/m² | - |
| 1778045260 | 12.22° C | 92% | 1018.9 hPa | 0 mm | 0 m/s | 0 W/m² | - |
* Rain latest hour (hover to see other rain measurements)
** Current wind speed in m/s (hover to see current wind gust speed)